RYR25WC EGGD-LEIB
Flight info
| Callsign | RYR25WC |
|---|---|
| Flight time | N/A |
| Altitude | 35000 |
| Route | YORQI L607 ALHAD UN859 SOPIL DCT BALAN DCT EVPOK DCT NARAK DCT GAI DCT LOMRA DCT ROCAN/N0465F310 DCT PUMAL N859 BCN Z174 CORDA |
| Aircraft | B737/M-SDE2E3FGHIRWXY/LB1 |
Departure
| Time | N/A |
|---|---|
| Airport | Bristol Airport (EGGD) |
Arrival
| Time | 2026-04-30 19:01 |
|---|---|
| Airport | Ibiza Airport (LEIB) |
| Time | Latitude | Longitude | Altitude | Speed | Heading |
|---|---|---|---|---|---|
| 2026-04-30 17:39 | 47.55778 | 1.01510 | 35107 ft | 447 kts | 165° |
| 2026-04-30 17:41 | 47.31255 | 1.06164 | 35122 ft | 450 kts | 179° |
| 2026-04-30 17:42 | 47.24980 | 1.06023 | 35123 ft | 450 kts | 180° |
| 2026-04-30 17:43 | 47.09355 | 1.05658 | 35121 ft | 448 kts | 180° |
| 2026-04-30 17:44 | 46.90690 | 1.04967 | 35131 ft | 448 kts | 180° |
| 2026-04-30 17:47 | 46.62607 | 1.03792 | 35129 ft | 448 kts | 180° |
| 2026-04-30 17:48 | 46.50170 | 1.03874 | 35114 ft | 448 kts | 166° |
| 2026-04-30 17:48 | 46.41001 | 1.06895 | 35132 ft | 451 kts | 166° |
| 2026-04-30 17:50 | 46.16540 | 1.15024 | 35134 ft | 451 kts | 167° |
| 2026-04-30 17:52 | 45.98165 | 1.21088 | 35156 ft | 450 kts | 167° |
| 2026-04-30 17:54 | 45.70644 | 1.30095 | 35152 ft | 453 kts | 168° |
| 2026-04-30 17:56 | 45.46013 | 1.38078 | 35144 ft | 454 kts | 169° |
| 2026-04-30 17:58 | 45.27492 | 1.44034 | 35132 ft | 454 kts | 169° |
| 2026-04-30 18:00 | 45.02828 | 1.51904 | 35125 ft | 455 kts | 170° |
| 2026-04-30 18:01 | 44.87326 | 1.56815 | 35130 ft | 458 kts | 171° |
| 2026-04-30 18:02 | 44.68724 | 1.62672 | 35129 ft | 457 kts | 171° |
| 2026-04-30 18:04 | 44.50021 | 1.68522 | 35133 ft | 461 kts | 171° |
| 2026-04-30 18:06 | 44.24848 | 1.75827 | 35135 ft | 462 kts | 175° |
| 2026-04-30 18:08 | 44.02587 | 1.80816 | 35118 ft | 464 kts | 175° |
| 2026-04-30 18:10 | 43.78033 | 1.83964 | 35126 ft | 462 kts | 181° |
| 2026-04-30 18:11 | 43.55549 | 1.86213 | 35127 ft | 463 kts | 181° |
| 2026-04-30 18:13 | 43.39496 | 1.87808 | 35100 ft | 463 kts | 181° |
| 2026-04-30 18:14 | 43.23399 | 1.89361 | 35126 ft | 464 kts | 182° |
| 2026-04-30 18:15 | 43.04099 | 1.91198 | 35121 ft | 465 kts | 182° |
| 2026-04-30 18:16 | 42.91216 | 1.92418 | 35129 ft | 465 kts | 182° |
| 2026-04-30 18:17 | 42.84758 | 1.93028 | 35130 ft | 464 kts | 182° |
| 2026-04-30 18:18 | 42.75088 | 1.93938 | 35132 ft | 464 kts | 182° |
| 2026-04-30 18:18 | 42.68673 | 1.94542 | 35119 ft | 464 kts | 181° |
| 2026-04-30 18:19 | 42.62241 | 1.95813 | 35164 ft | 467 kts | 177° |
| 2026-04-30 18:19 | 42.55805 | 1.97103 | 35134 ft | 467 kts | 178° |
| 2026-04-30 18:20 | 42.49350 | 1.98367 | 35136 ft | 467 kts | 178° |
| 2026-04-30 18:20 | 42.42920 | 1.99622 | 35152 ft | 467 kts | 178° |
| 2026-04-30 18:21 | 42.36487 | 2.00796 | 35133 ft | 462 kts | 182° |
| 2026-04-30 18:21 | 42.30111 | 2.01325 | 35144 ft | 462 kts | 182° |
| 2026-04-30 18:22 | 42.23685 | 2.01941 | 35138 ft | 462 kts | 181° |
| 2026-04-30 18:22 | 42.14072 | 2.02876 | 35146 ft | 461 kts | 181° |
| 2026-04-30 18:23 | 42.07675 | 2.03497 | 35132 ft | 460 kts | 181° |
| 2026-04-30 18:23 | 42.01289 | 2.04116 | 35125 ft | 460 kts | 181° |
| 2026-04-30 18:24 | 41.91745 | 2.05040 | 35118 ft | 459 kts | 181° |
| 2026-04-30 18:25 | 41.85372 | 2.05654 | 35123 ft | 459 kts | 181° |
| 2026-04-30 18:25 | 41.75799 | 2.06575 | 35112 ft | 459 kts | 181° |
| 2026-04-30 18:26 | 41.66246 | 2.07482 | 35102 ft | 458 kts | 181° |
| 2026-04-30 18:27 | 41.56711 | 2.08371 | 35099 ft | 458 kts | 181° |
| 2026-04-30 18:28 | 41.47229 | 2.09252 | 35100 ft | 457 kts | 181° |
| 2026-04-30 18:28 | 41.37719 | 2.10133 | 35099 ft | 456 kts | 181° |
| 2026-04-30 18:29 | 41.25051 | 2.11839 | 35102 ft | 458 kts | 177° |
| 2026-04-30 18:30 | 41.12450 | 2.13944 | 35098 ft | 457 kts | 177° |
| 2026-04-30 18:31 | 41.02973 | 2.15514 | 35092 ft | 457 kts | 177° |
| 2026-04-30 18:32 | 40.93498 | 2.17080 | 35083 ft | 457 kts | 177° |
| 2026-04-30 18:33 | 40.84037 | 2.18638 | 35079 ft | 455 kts | 177° |
| 2026-04-30 18:33 | 40.74650 | 2.20179 | 35083 ft | 455 kts | 177° |
| 2026-04-30 18:34 | 40.65218 | 2.21724 | 35080 ft | 455 kts | 177° |
| 2026-04-30 18:35 | 40.58937 | 2.22750 | 35078 ft | 455 kts | 177° |
| 2026-04-30 18:35 | 40.52649 | 2.23775 | 35078 ft | 455 kts | 177° |
| 2026-04-30 18:36 | 40.43209 | 2.25312 | 35065 ft | 455 kts | 177° |
| 2026-04-30 18:37 | 40.33893 | 2.27698 | 35071 ft | 456 kts | 173° |
| 2026-04-30 18:37 | 40.27650 | 2.29307 | 35067 ft | 457 kts | 173° |
| 2026-04-30 18:38 | 40.21407 | 2.30906 | 35056 ft | 457 kts | 173° |
| 2026-04-30 18:38 | 40.15173 | 2.32497 | 35067 ft | 456 kts | 173° |
| 2026-04-30 18:39 | 40.08941 | 2.34087 | 35062 ft | 456 kts | 173° |
| 2026-04-30 18:39 | 40.02746 | 2.35663 | 35062 ft | 456 kts | 173° |
| 2026-04-30 18:40 | 39.96517 | 2.37245 | 35055 ft | 455 kts | 173° |
| 2026-04-30 18:40 | 39.90308 | 2.38820 | 35056 ft | 454 kts | 173° |
| 2026-04-30 18:41 | 39.84095 | 2.40393 | 35055 ft | 454 kts | 173° |
| 2026-04-30 18:41 | 39.77921 | 2.41953 | 35043 ft | 454 kts | 173° |
| 2026-04-30 18:41 | 39.74811 | 2.42419 | 35030 ft | 445 kts | 186° |
| 2026-04-30 18:42 | 39.71756 | 2.42039 | 35063 ft | 442 kts | 189° |
| 2026-04-30 18:42 | 39.62570 | 2.40744 | 35051 ft | 442 kts | 190° |
| 2026-04-30 18:45 | 39.42201 | 2.14466 | 26927 ft | 437 kts | 237° |
| 2026-04-30 18:45 | 39.40492 | 2.11115 | 26193 ft | 444 kts | 237° |
| 2026-04-30 18:45 | 39.38786 | 2.07771 | 25528 ft | 446 kts | 237° |
| 2026-04-30 18:46 | 39.37093 | 2.04456 | 24891 ft | 447 kts | 237° |
| 2026-04-30 18:46 | 39.35381 | 2.01108 | 24279 ft | 446 kts | 237° |
| 2026-04-30 18:46 | 39.33677 | 1.97779 | 23668 ft | 443 kts | 237° |
| 2026-04-30 18:46 | 39.31979 | 1.94465 | 22942 ft | 441 kts | 237° |
| 2026-04-30 18:47 | 39.30296 | 1.91184 | 22235 ft | 437 kts | 237° |
| 2026-04-30 18:47 | 39.28626 | 1.87931 | 21549 ft | 432 kts | 237° |
| 2026-04-30 18:47 | 39.26973 | 1.84714 | 20874 ft | 424 kts | 237° |
| 2026-04-30 18:47 | 39.25362 | 1.81582 | 20221 ft | 415 kts | 237° |
| 2026-04-30 18:48 | 39.23783 | 1.78515 | 19581 ft | 406 kts | 237° |
| 2026-04-30 18:48 | 39.22232 | 1.75504 | 18924 ft | 400 kts | 237° |
| 2026-04-30 18:48 | 39.20693 | 1.72546 | 18272 ft | 394 kts | 234° |
| 2026-04-30 18:48 | 39.19037 | 1.69764 | 17540 ft | 389 kts | 233° |
| 2026-04-30 18:49 | 39.17400 | 1.67009 | 16820 ft | 384 kts | 233° |
| 2026-04-30 18:49 | 39.15792 | 1.64287 | 16131 ft | 379 kts | 233° |
| 2026-04-30 18:49 | 39.14203 | 1.61593 | 15438 ft | 375 kts | 233° |
| 2026-04-30 18:49 | 39.12631 | 1.58927 | 14773 ft | 371 kts | 233° |
| 2026-04-30 18:50 | 39.11096 | 1.56325 | 14114 ft | 368 kts | 233° |
| 2026-04-30 18:50 | 39.09555 | 1.53713 | 13424 ft | 365 kts | 233° |
| 2026-04-30 18:50 | 39.08028 | 1.51127 | 12726 ft | 361 kts | 233° |
| 2026-04-30 18:50 | 39.06512 | 1.48562 | 12031 ft | 358 kts | 233° |
| 2026-04-30 18:51 | 39.05011 | 1.46025 | 11356 ft | 355 kts | 234° |
| 2026-04-30 18:51 | 39.03541 | 1.43488 | 10703 ft | 352 kts | 234° |
| 2026-04-30 18:51 | 39.02086 | 1.40973 | 10035 ft | 350 kts | 234° |
| 2026-04-30 18:51 | 39.00636 | 1.38471 | 9348 ft | 347 kts | 234° |
| 2026-04-30 18:52 | 38.99196 | 1.35987 | 8643 ft | 345 kts | 234° |
| 2026-04-30 18:52 | 38.97762 | 1.33517 | 7950 ft | 344 kts | 235° |
| 2026-04-30 18:52 | 38.96331 | 1.31055 | 7267 ft | 343 kts | 235° |
| 2026-04-30 18:52 | 38.94902 | 1.28598 | 6599 ft | 343 kts | 235° |
| 2026-04-30 18:53 | 38.93471 | 1.26141 | 5875 ft | 343 kts | 235° |
| 2026-04-30 18:53 | 38.92042 | 1.23688 | 5209 ft | 343 kts | 234° |
| 2026-04-30 18:53 | 38.90630 | 1.21264 | 4832 ft | 333 kts | 234° |
| 2026-04-30 18:53 | 38.89284 | 1.18958 | 4575 ft | 321 kts | 234° |
| 2026-04-30 18:54 | 38.88115 | 1.16609 | 4309 ft | 305 kts | 245° |
| 2026-04-30 18:54 | 38.87168 | 1.14238 | 4097 ft | 292 kts | 244° |
| 2026-04-30 18:54 | 38.86239 | 1.11976 | 3879 ft | 279 kts | 243° |
| 2026-04-30 18:54 | 38.85341 | 1.09818 | 3679 ft | 268 kts | 243° |
| 2026-04-30 18:55 | 38.84224 | 1.07980 | 3446 ft | 261 kts | 215° |
| 2026-04-30 18:55 | 38.80843 | 1.07490 | 3043 ft | 247 kts | 159° |
| 2026-04-30 18:55 | 38.79363 | 1.08558 | 2986 ft | 245 kts | 136° |
| 2026-04-30 18:56 | 38.77999 | 1.12351 | 2986 ft | 238 kts | 87° |
| 2026-04-30 18:56 | 38.78092 | 1.14446 | 2996 ft | 239 kts | 80° |
| 2026-04-30 18:56 | 38.78384 | 1.15801 | 2998 ft | 228 kts | 64° |
| 2026-04-30 18:57 | 38.79767 | 1.19164 | 2829 ft | 206 kts | 60° |
| 2026-04-30 18:57 | 38.80640 | 1.21262 | 2512 ft | 197 kts | 60° |
| 2026-04-30 18:57 | 38.81262 | 1.22764 | 2263 ft | 184 kts | 60° |
| 2026-04-30 18:58 | 38.82231 | 1.25102 | 1900 ft | 164 kts | 60° |
| 2026-04-30 18:58 | 38.82756 | 1.26372 | 1680 ft | 159 kts | 61° |
| 2026-04-30 18:58 | 38.83271 | 1.27616 | 1465 ft | 155 kts | 61° |
| 2026-04-30 18:59 | 38.84252 | 1.29987 | 1067 ft | 149 kts | 61° |
| 2026-04-30 19:00 | 38.85717 | 1.33500 | 477 ft | 150 kts | 63° |
| 2026-04-30 19:00 | 38.86207 | 1.34687 | 269 ft | 151 kts | 64° |
| 2026-04-30 19:00 | 38.87148 | 1.36985 | 14 ft | 112 kts | 62° |
| 2026-04-30 19:01 | 38.87501 | 1.37782 | 13 ft | 21 kts | 40° |
| 2026-04-30 19:01 | 38.87582 | 1.37855 | 13 ft | 12 kts | 33° |
| 2026-04-30 19:02 | 38.87700 | 1.37878 | 11 ft | 11 kts | 279° |
| 2026-04-30 19:02 | 38.87588 | 1.37600 | 11 ft | 11 kts | 242° |
| 2026-04-30 19:03 | 38.87673 | 1.37495 | 13 ft | 15 kts | 330° |
| 2026-04-30 19:03 | 38.87611 | 1.37223 | 11 ft | 20 kts | 242° |
| 2026-04-30 19:04 | 38.87540 | 1.37045 | 11 ft | 6 kts | 256° |
| 2026-04-30 19:04 | 38.87588 | 1.36994 | 11 ft | 0 kts | 332° |